createdAt,value
2022-10-07T00:02:26.610Z,15.27
2022-10-07T00:04:53.443Z,15.15
2022-10-07T00:07:21.015Z,15.19
2022-10-07T00:09:47.843Z,15.14
2022-10-07T00:12:14.832Z,15.11
2022-10-07T00:14:42.626Z,15.12
2022-10-07T00:17:09.487Z,15.07
2022-10-07T00:19:36.413Z,15.07
2022-10-07T00:22:03.490Z,15.07
2022-10-07T00:24:30.349Z,14.99
2022-10-07T00:26:57.128Z,14.96
2022-10-07T00:29:24.250Z,14.99
2022-10-07T00:31:56.272Z,14.92
2022-10-07T00:34:24.013Z,14.90
2022-10-07T00:36:51.108Z,14.82
2022-10-07T00:39:18.144Z,14.83
2022-10-07T00:41:50.457Z,14.81
2022-10-07T00:44:32.635Z,14.80
2022-10-07T00:47:04.225Z,14.80
2022-10-07T00:49:32.076Z,14.74
2022-10-07T00:51:58.814Z,14.69
2022-10-07T00:54:25.566Z,14.73
2022-10-07T00:56:52.649Z,14.72
2022-10-07T00:59:19.487Z,14.69
2022-10-07T01:01:46.351Z,14.63
2022-10-07T01:04:13.803Z,14.59
2022-10-07T01:06:40.856Z,14.53
2022-10-07T01:09:07.908Z,14.59
2022-10-07T01:11:40.991Z,14.56
2022-10-07T01:14:16.682Z,14.48
2022-10-07T01:17:08.558Z,14.52
2022-10-07T01:19:56.847Z,14.47
2022-10-07T01:22:54.384Z,14.45
2022-10-07T01:25:40.600Z,14.39
2022-10-07T01:28:27.416Z,14.36
2022-10-07T01:30:56.670Z,14.41
2022-10-07T01:33:27.808Z,14.33
2022-10-07T01:35:55.432Z,14.26
2022-10-07T01:38:22.912Z,14.31
2022-10-07T01:40:54.313Z,14.24
2022-10-07T01:43:21.349Z,14.24
2022-10-07T01:45:49.215Z,14.16
2022-10-07T01:48:16.473Z,14.14
2022-10-07T01:50:43.333Z,14.10
2022-10-07T01:53:16.556Z,14.17
2022-10-07T01:56:25.403Z,14.15
2022-10-07T01:58:58.384Z,14.12
2022-10-07T02:01:34.216Z,14.08
2022-10-07T02:04:07.055Z,14.09
2022-10-07T02:06:47.110Z,14.03
2022-10-07T02:09:26.028Z,14.04
2022-10-07T02:11:57.366Z,14.02
2022-10-07T02:14:26.644Z,13.96
2022-10-07T02:16:56.878Z,14.01
2022-10-07T02:19:45.049Z,13.99
2022-10-07T02:22:11.846Z,13.99
2022-10-07T02:24:39.013Z,14.00
2022-10-07T02:27:11.097Z,13.95
2022-10-07T02:29:38.584Z,13.95
2022-10-07T02:32:17.345Z,13.90
2022-10-07T02:34:44.203Z,13.90
2022-10-07T02:37:14.840Z,13.83
2022-10-07T02:39:43.607Z,13.86
2022-10-07T02:42:17.295Z,13.81
2022-10-07T02:44:49.121Z,13.75
2022-10-07T02:47:29.068Z,13.78
2022-10-07T02:49:57.314Z,13.78
2022-10-07T02:52:24.186Z,13.72
2022-10-07T02:55:13.003Z,13.71
2022-10-07T02:57:42.530Z,13.73
2022-10-07T03:00:11.317Z,13.70
2022-10-07T03:02:49.189Z,13.65
2022-10-07T03:05:19.265Z,13.62
2022-10-07T03:07:50.978Z,13.62
2022-10-07T03:10:18.186Z,13.60
2022-10-07T03:12:45.397Z,13.53
2022-10-07T03:15:12.204Z,13.52
2022-10-07T03:17:40.150Z,13.55
2022-10-07T03:20:08.157Z,13.47
2022-10-07T03:22:35.144Z,13.50
2022-10-07T03:25:02.227Z,13.49
2022-10-07T03:27:29.224Z,13.48
2022-10-07T03:29:58.508Z,13.43
2022-10-07T03:32:27.519Z,13.40
2022-10-07T03:34:54.527Z,13.43
2022-10-07T03:37:24.708Z,13.39
2022-10-07T03:39:52.740Z,13.34
2022-10-07T03:42:21.002Z,13.35
2022-10-07T03:44:49.620Z,13.34
2022-10-07T03:47:21.798Z,13.29
2022-10-07T03:49:48.684Z,13.21
2022-10-07T03:52:15.784Z,13.23
2022-10-07T03:54:43.591Z,13.25
2022-10-07T03:57:28.949Z,13.24
2022-10-07T03:59:55.996Z,13.17
2022-10-07T04:02:23.571Z,13.12
2022-10-07T04:04:53.368Z,13.10
2022-10-07T04:07:22.119Z,13.10
2022-10-07T04:09:49.261Z,13.08
2022-10-07T04:12:16.555Z,13.08
2022-10-07T04:14:43.668Z,12.97
2022-10-07T04:17:10.491Z,13.02
2022-10-07T04:19:37.417Z,13.08
2022-10-07T04:22:08.887Z,13.04
2022-10-07T04:24:36.337Z,13.02
2022-10-07T04:27:06.538Z,12.98
2022-10-07T04:29:38.292Z,12.96
2022-10-07T04:32:05.800Z,12.85
2022-10-07T04:34:32.576Z,12.86
2022-10-07T04:37:01.185Z,12.90
2022-10-07T04:39:49.023Z,12.88
2022-10-07T04:42:33.848Z,12.87
2022-10-07T04:45:00.663Z,12.78
2022-10-07T04:47:27.707Z,12.75
2022-10-07T04:49:55.189Z,12.92
2022-10-07T04:52:22.256Z,12.88
2022-10-07T04:54:49.124Z,12.83
2022-10-07T04:57:16.196Z,12.84
2022-10-07T04:59:43.335Z,12.81
2022-10-07T05:02:10.660Z,12.79
2022-10-07T05:04:37.494Z,12.79
2022-10-07T05:07:04.851Z,12.78
2022-10-07T05:09:31.636Z,12.63
2022-10-07T05:11:58.694Z,12.62
2022-10-07T05:14:25.507Z,12.62
2022-10-07T05:16:52.697Z,12.68
2022-10-07T05:19:20.181Z,12.67
2022-10-07T05:21:47.045Z,12.64
2022-10-07T05:24:14.060Z,12.62
2022-10-07T05:26:40.879Z,12.61
2022-10-07T05:29:07.966Z,12.63
2022-10-07T05:31:34.834Z,12.61
2022-10-07T05:34:02.167Z,12.56
2022-10-07T05:36:29.245Z,12.58
2022-10-07T05:38:58.158Z,12.52
2022-10-07T05:41:25.479Z,12.38
2022-10-07T05:43:52.338Z,12.46
2022-10-07T05:46:23.703Z,12.52
2022-10-07T05:48:51.867Z,12.53
2022-10-07T05:51:22.755Z,12.32
2022-10-07T05:53:49.630Z,12.38
2022-10-07T05:56:18.150Z,12.32
2022-10-07T05:58:46.095Z,12.46
2022-10-07T06:01:17.450Z,12.34
2022-10-07T06:03:48.968Z,12.43
2022-10-07T06:06:15.953Z,12.36
2022-10-07T06:08:42.810Z,12.41
2022-10-07T06:11:28.578Z,12.55
2022-10-07T06:13:55.797Z,12.56
2022-10-07T06:16:23.456Z,12.59
2022-10-07T06:18:52.525Z,12.61
2022-10-07T06:21:20.128Z,12.65
2022-10-07T06:23:53.784Z,12.65
2022-10-07T06:26:21.106Z,12.68
2022-10-07T06:28:48.299Z,12.69
2022-10-07T06:31:16.955Z,12.72
2022-10-07T06:33:44.107Z,12.77
2022-10-07T06:36:11.881Z,12.81
2022-10-07T06:38:44.173Z,12.84
2022-10-07T06:41:11.002Z,12.90
2022-10-07T06:43:38.082Z,12.94
2022-10-07T06:46:05.732Z,12.97
2022-10-07T06:48:33.862Z,13.03
2022-10-07T06:51:03.363Z,13.07
2022-10-07T06:53:30.824Z,13.08
2022-10-07T06:56:01.836Z,13.11
2022-10-07T06:58:28.980Z,13.14
2022-10-07T07:00:56.507Z,13.17
2022-10-07T07:03:23.918Z,13.23
2022-10-07T07:05:55.082Z,13.26
2022-10-07T07:08:23.615Z,13.32
2022-10-07T07:10:51.060Z,13.36
2022-10-07T07:13:19.805Z,13.41
2022-10-07T07:15:57.452Z,13.44
2022-10-07T07:18:25.183Z,13.49
2022-10-07T07:20:52.104Z,13.52
2022-10-07T07:23:19.456Z,13.59
2022-10-07T07:25:46.473Z,13.63
2022-10-07T07:28:14.989Z,13.68
2022-10-07T07:30:42.211Z,13.72
2022-10-07T07:33:09.393Z,13.76
2022-10-07T07:35:38.071Z,13.78
2022-10-07T07:38:05.113Z,13.83
2022-10-07T07:40:31.918Z,13.88
2022-10-07T07:42:58.981Z,13.93
2022-10-07T07:45:25.767Z,13.98
2022-10-07T07:47:52.974Z,13.99
2022-10-07T07:50:27.067Z,14.08
2022-10-07T07:52:57.351Z,14.15
2022-10-07T07:55:24.607Z,14.18
2022-10-07T07:57:51.615Z,14.25
2022-10-07T08:00:19.045Z,14.31
2022-10-07T08:02:46.601Z,14.37
2022-10-07T08:05:13.521Z,14.42
2022-10-07T08:07:40.552Z,14.47
2022-10-07T08:10:07.676Z,14.52
2022-10-07T08:12:34.719Z,14.57
2022-10-07T08:15:01.520Z,14.65
2022-10-07T08:17:28.380Z,14.69
2022-10-07T08:19:56.244Z,14.75
2022-10-07T08:22:23.079Z,14.82
2022-10-07T08:24:49.893Z,14.91
2022-10-07T08:27:16.945Z,14.96
2022-10-07T08:29:43.761Z,15.06
2022-10-07T08:32:10.625Z,15.16
2022-10-07T08:34:37.675Z,15.21
2022-10-07T08:37:04.475Z,15.32
2022-10-07T08:39:31.367Z,15.43
2022-10-07T08:41:58.407Z,15.53
2022-10-07T08:44:28.436Z,15.62
2022-10-07T08:47:02.070Z,15.72
2022-10-07T08:49:54.496Z,15.82
2022-10-07T08:52:39.666Z,15.93
2022-10-07T08:55:33.253Z,16.04
2022-10-07T08:58:20.726Z,16.17
2022-10-07T09:00:53.333Z,16.27
2022-10-07T09:03:26.312Z,16.39
2022-10-07T09:05:53.351Z,16.46
2022-10-07T09:08:32.907Z,16.57
2022-10-07T09:11:15.756Z,16.67
2022-10-07T09:13:48.163Z,16.77
2022-10-07T09:16:23.469Z,16.89
2022-10-07T09:18:54.462Z,16.98
2022-10-07T09:21:31.427Z,17.08
2022-10-07T09:24:21.128Z,17.18
2022-10-07T09:26:48.214Z,17.30
2022-10-07T09:29:17.373Z,17.40
2022-10-07T09:31:44.358Z,17.50
2022-10-07T09:34:27.696Z,17.62
2022-10-07T09:37:13.499Z,17.75
2022-10-07T09:39:40.560Z,17.87
2022-10-07T09:42:09.544Z,17.97
2022-10-07T09:44:36.349Z,18.07
2022-10-07T09:47:17.578Z,18.15
2022-10-07T09:49:45.278Z,18.30
2022-10-07T09:52:23.551Z,18.39
2022-10-07T09:54:52.110Z,18.52
2022-10-07T09:57:29.576Z,18.58
2022-10-07T10:00:11.731Z,18.67
2022-10-07T10:02:39.998Z,18.72
2022-10-07T10:05:23.954Z,18.81
2022-10-07T10:08:04.998Z,18.84
2022-10-07T10:10:35.336Z,18.92
2022-10-07T10:13:03.965Z,18.96
2022-10-07T10:15:39.677Z,19.00
2022-10-07T10:18:29.008Z,19.12
2022-10-07T10:20:56.451Z,19.18
2022-10-07T10:23:30.346Z,19.28
2022-10-07T10:26:18.863Z,19.39
2022-10-07T10:28:47.992Z,19.47
2022-10-07T10:31:30.939Z,19.55
2022-10-07T10:34:10.258Z,19.64
2022-10-07T10:36:38.700Z,19.73
2022-10-07T10:39:30.010Z,19.80
2022-10-07T10:41:58.230Z,19.90
2022-10-07T10:44:47.101Z,19.99
2022-10-07T10:47:45.374Z,20.04
2022-10-07T10:50:15.879Z,20.15
2022-10-07T10:52:49.677Z,20.24
2022-10-07T10:55:35.076Z,20.31
2022-10-07T10:58:08.777Z,20.37
2022-10-07T11:01:00.041Z,20.45
2022-10-07T11:03:36.809Z,20.54
2022-10-07T11:06:05.923Z,20.60
2022-10-07T11:08:38.165Z,20.71
2022-10-07T11:11:08.805Z,20.78
2022-10-07T11:13:46.865Z,20.87
2022-10-07T11:16:39.941Z,20.95
2022-10-07T11:19:20.177Z,21.02
2022-10-07T11:21:51.277Z,21.12
2022-10-07T11:24:35.222Z,21.22
2022-10-07T11:27:19.250Z,21.30
2022-10-07T11:29:58.700Z,21.36
2022-10-07T11:32:40.016Z,21.43
2022-10-07T11:35:17.889Z,21.53
2022-10-07T11:37:52.302Z,21.58
2022-10-07T11:40:19.477Z,21.63
2022-10-07T11:42:49.996Z,21.73
2022-10-07T11:45:22.168Z,21.80
2022-10-07T11:47:52.198Z,21.84
2022-10-07T11:50:20.956Z,21.89
2022-10-07T11:52:49.451Z,21.96
2022-10-07T11:55:27.452Z,22.02
2022-10-07T11:57:56.654Z,22.12
2022-10-07T12:00:28.870Z,22.15
2022-10-07T12:02:56.786Z,22.19
2022-10-07T12:05:36.171Z,22.26
2022-10-07T12:08:38.562Z,22.32
2022-10-07T12:11:12.416Z,22.34
2022-10-07T12:13:40.345Z,22.41
2022-10-07T12:16:30.275Z,22.48
2022-10-07T12:19:06.391Z,22.52
2022-10-07T12:22:04.750Z,22.56
2022-10-07T12:24:32.823Z,22.62
2022-10-07T12:27:07.002Z,22.67
2022-10-07T12:29:47.071Z,22.71
2022-10-07T12:32:46.606Z,22.76
2022-10-07T12:35:35.224Z,22.78
2022-10-07T12:38:14.200Z,22.84
2022-10-07T12:41:25.146Z,22.89
2022-10-07T12:44:21.432Z,22.96
2022-10-07T12:46:59.559Z,22.98
2022-10-07T12:50:04.771Z,23.01
2022-10-07T12:52:34.779Z,23.07
2022-10-07T12:55:28.513Z,23.12
2022-10-07T12:58:14.816Z,23.15
2022-10-07T13:00:49.811Z,23.18
2022-10-07T13:03:36.592Z,23.21
2022-10-07T13:06:46.807Z,23.26
2022-10-07T13:09:35.000Z,23.29
2022-10-07T13:12:08.172Z,23.34
2022-10-07T13:14:53.305Z,23.34
2022-10-07T13:17:40.588Z,23.38
2022-10-07T13:20:20.144Z,23.43
2022-10-07T13:22:48.301Z,23.42
2022-10-07T13:25:18.684Z,23.45
2022-10-07T13:27:55.987Z,23.49
2022-10-07T13:30:40.060Z,23.50
2022-10-07T13:33:28.884Z,23.55
2022-10-07T13:36:40.732Z,23.59
2022-10-07T13:39:20.459Z,23.59
2022-10-07T13:41:48.978Z,23.60
2022-10-07T13:44:18.499Z,23.60
2022-10-07T13:47:05.214Z,23.62
2022-10-07T13:49:38.061Z,23.62
2022-10-07T13:52:06.330Z,23.65
2022-10-07T13:54:33.519Z,23.65
2022-10-07T13:57:02.395Z,23.66
2022-10-07T13:59:29.305Z,23.67
2022-10-07T14:01:58.363Z,23.67
2022-10-07T14:04:26.095Z,23.69
2022-10-07T14:07:01.908Z,23.69
2022-10-07T14:09:31.955Z,23.70
2022-10-07T14:12:05.109Z,23.71
2022-10-07T14:14:43.166Z,23.70
2022-10-07T14:17:35.359Z,23.71
2022-10-07T14:20:05.502Z,23.71
2022-10-07T14:22:39.443Z,23.70
2022-10-07T14:25:15.960Z,23.71
2022-10-07T14:27:45.720Z,23.70
2022-10-07T14:30:29.514Z,23.70
2022-10-07T14:33:32.567Z,23.70
2022-10-07T14:36:19.755Z,23.71
2022-10-07T14:38:48.168Z,23.70
2022-10-07T14:41:16.347Z,23.71
2022-10-07T14:43:44.895Z,23.70
2022-10-07T14:46:24.592Z,23.71
2022-10-07T14:48:52.442Z,23.69
2022-10-07T14:51:25.361Z,23.68
2022-10-07T14:54:03.807Z,23.68
2022-10-07T14:56:33.727Z,23.67
2022-10-07T14:59:00.891Z,23.71
2022-10-07T15:01:29.726Z,23.66
2022-10-07T15:03:57.526Z,23.68
2022-10-07T15:06:24.646Z,23.65
2022-10-07T15:08:51.477Z,23.65
2022-10-07T15:11:19.637Z,23.64
2022-10-07T15:13:47.806Z,23.63
2022-10-07T15:16:23.407Z,23.62
2022-10-07T15:18:52.970Z,23.61
2022-10-07T15:21:21.687Z,23.60
2022-10-07T15:23:55.161Z,23.58
2022-10-07T15:26:24.365Z,23.56
2022-10-07T15:28:56.425Z,23.55
2022-10-07T15:31:25.040Z,23.52
2022-10-07T15:33:57.926Z,23.50
2022-10-07T15:36:25.822Z,23.47
2022-10-07T15:38:53.220Z,23.45
2022-10-07T15:41:29.451Z,23.44
2022-10-07T15:43:58.186Z,23.40
2022-10-07T15:46:25.091Z,23.38
2022-10-07T15:48:56.309Z,23.36
2022-10-07T15:51:27.276Z,23.36
2022-10-07T15:53:54.211Z,23.32
2022-10-07T15:56:21.170Z,23.30
2022-10-07T15:58:48.177Z,23.25
2022-10-07T16:01:15.614Z,23.22
2022-10-07T16:03:44.431Z,23.20
2022-10-07T16:06:22.154Z,23.18
2022-10-07T16:08:49.797Z,23.16
2022-10-07T16:11:17.163Z,23.12
2022-10-07T16:13:45.362Z,23.11
2022-10-07T16:16:14.782Z,23.07
2022-10-07T16:18:43.299Z,23.04
2022-10-07T16:21:24.266Z,23.01
2022-10-07T16:23:52.267Z,22.97
2022-10-07T16:26:21.367Z,22.94
2022-10-07T16:29:08.092Z,22.89
2022-10-07T16:31:36.729Z,22.86
2022-10-07T16:34:03.980Z,22.81
2022-10-07T16:36:30.816Z,22.79
2022-10-07T16:39:03.155Z,22.74
2022-10-07T16:41:30.366Z,22.70
2022-10-07T16:43:57.766Z,22.67
2022-10-07T16:46:24.992Z,22.62
2022-10-07T16:48:52.427Z,22.61
2022-10-07T16:51:24.168Z,22.56
2022-10-07T16:53:54.312Z,22.53
2022-10-07T16:56:21.160Z,22.49
2022-10-07T16:58:48.256Z,22.44
2022-10-07T17:01:16.163Z,22.40
2022-10-07T17:03:49.992Z,22.36
2022-10-07T17:06:18.524Z,22.33
2022-10-07T17:08:48.326Z,22.28
2022-10-07T17:11:29.222Z,22.22
2022-10-07T17:14:07.555Z,22.17
2022-10-07T17:16:45.569Z,22.14
2022-10-07T17:19:13.979Z,22.08
2022-10-07T17:21:42.378Z,22.03
2022-10-07T17:24:09.697Z,21.97
2022-10-07T17:26:37.527Z,21.92
2022-10-07T17:29:09.912Z,21.89
2022-10-07T17:31:39.124Z,21.85
2022-10-07T17:34:06.699Z,21.81
2022-10-07T17:36:33.601Z,21.75
2022-10-07T17:39:00.489Z,21.70
2022-10-07T17:41:31.953Z,21.67
2022-10-07T17:44:00.122Z,21.63
2022-10-07T17:46:28.519Z,21.59
2022-10-07T17:48:56.644Z,21.56
2022-10-07T17:51:27.198Z,21.53
2022-10-07T17:53:57.164Z,21.47
2022-10-07T17:56:24.210Z,21.44
2022-10-07T17:58:51.048Z,21.36
2022-10-07T18:01:33.905Z,21.34
2022-10-07T18:04:05.648Z,21.29
2022-10-07T18:06:36.683Z,21.26
2022-10-07T18:09:12.726Z,21.24
2022-10-07T18:11:58.066Z,21.20
2022-10-07T18:14:43.752Z,21.16
2022-10-07T18:17:10.634Z,21.11
2022-10-07T18:19:39.610Z,21.08
2022-10-07T18:22:06.492Z,21.04
2022-10-07T18:24:33.560Z,21.02
2022-10-07T18:27:00.731Z,20.98
2022-10-07T18:29:28.734Z,20.96
2022-10-07T18:31:56.372Z,20.93
2022-10-07T18:34:23.401Z,20.89
2022-10-07T18:36:55.223Z,20.86
2022-10-07T18:39:23.753Z,20.82
2022-10-07T18:41:50.967Z,20.79
2022-10-07T18:44:17.733Z,20.74
2022-10-07T18:46:44.957Z,20.71
2022-10-07T18:49:13.871Z,20.67
2022-10-07T18:51:41.437Z,20.61
2022-10-07T18:54:08.554Z,20.59
2022-10-07T18:56:39.933Z,20.53
2022-10-07T18:59:08.185Z,20.51
2022-10-07T19:01:35.112Z,20.47
2022-10-07T19:04:02.362Z,20.46
2022-10-07T19:06:30.823Z,20.41
2022-10-07T19:08:59.181Z,20.36
2022-10-07T19:11:26.215Z,20.31
2022-10-07T19:13:56.475Z,20.29
2022-10-07T19:16:23.460Z,20.28
2022-10-07T19:18:51.882Z,20.23
2022-10-07T19:21:20.039Z,20.16
2022-10-07T19:23:48.080Z,20.08
2022-10-07T19:26:20.930Z,20.01
2022-10-07T19:28:49.012Z,19.98
2022-10-07T19:31:24.382Z,19.96
2022-10-07T19:33:58.357Z,19.91
2022-10-07T19:36:25.384Z,19.87
2022-10-07T19:38:53.244Z,19.83
2022-10-07T19:41:21.606Z,19.80
2022-10-07T19:43:49.100Z,19.76
2022-10-07T19:46:16.328Z,19.70
2022-10-07T19:48:43.159Z,19.67
2022-10-07T19:51:14.475Z,19.66
2022-10-07T19:53:46.570Z,19.61
2022-10-07T19:56:20.400Z,19.56
2022-10-07T19:58:54.550Z,19.51
2022-10-07T20:01:31.924Z,19.48
2022-10-07T20:04:03.518Z,19.45
2022-10-07T20:06:30.827Z,19.39
2022-10-07T20:08:57.785Z,19.36
2022-10-07T20:11:25.391Z,19.32
2022-10-07T20:13:54.355Z,19.30
2022-10-07T20:16:22.906Z,19.23
2022-10-07T20:18:50.843Z,19.22
2022-10-07T20:21:23.847Z,19.20
2022-10-07T20:23:52.201Z,19.16
2022-10-07T20:26:23.840Z,19.11
2022-10-07T20:28:51.924Z,19.09
2022-10-07T20:31:21.341Z,19.04
2022-10-07T20:33:49.955Z,19.02
2022-10-07T20:36:18.888Z,19.00
2022-10-07T20:39:04.494Z,18.96
2022-10-07T20:41:57.518Z,18.91
2022-10-07T20:44:24.593Z,18.86
2022-10-07T20:46:51.985Z,18.83
2022-10-07T20:49:22.534Z,18.81
2022-10-07T20:51:52.865Z,18.77
2022-10-07T20:54:20.559Z,18.75
2022-10-07T20:56:47.536Z,18.72
2022-10-07T20:59:14.665Z,18.68
2022-10-07T21:01:41.658Z,18.65
2022-10-07T21:04:09.212Z,18.63
2022-10-07T21:06:36.396Z,18.61
2022-10-07T21:09:03.458Z,18.57
2022-10-07T21:11:30.406Z,18.53
2022-10-07T21:13:57.527Z,18.51
2022-10-07T21:16:24.771Z,18.48
2022-10-07T21:18:51.550Z,18.46
2022-10-07T21:21:18.682Z,18.42
2022-10-07T21:23:45.489Z,18.39
2022-10-07T21:26:12.460Z,18.38
2022-10-07T21:28:39.644Z,18.37
2022-10-07T21:31:10.480Z,18.32
2022-10-07T21:33:39.769Z,18.31
2022-10-07T21:36:08.154Z,18.26
2022-10-07T21:38:35.027Z,18.24
2022-10-07T21:41:11.989Z,18.21
2022-10-07T21:43:40.047Z,18.19
2022-10-07T21:46:07.091Z,18.17
2022-10-07T21:48:33.920Z,18.14
2022-10-07T21:51:05.730Z,18.10
2022-10-07T21:53:35.553Z,18.08
2022-10-07T21:56:03.825Z,18.06
2022-10-07T21:58:31.076Z,18.01
2022-10-07T22:00:57.918Z,18.01
2022-10-07T22:03:24.940Z,17.96
2022-10-07T22:05:51.759Z,17.95
2022-10-07T22:08:37.244Z,17.90
2022-10-07T22:11:07.335Z,17.91
2022-10-07T22:13:40.466Z,17.89
2022-10-07T22:16:14.864Z,17.84
2022-10-07T22:18:43.521Z,17.80
2022-10-07T22:21:19.405Z,17.80
2022-10-07T22:23:57.022Z,17.75
2022-10-07T22:26:25.726Z,17.74
2022-10-07T22:28:52.584Z,17.70
2022-10-07T22:31:19.521Z,17.71
2022-10-07T22:33:54.419Z,17.69
2022-10-07T22:36:22.040Z,17.65
2022-10-07T22:38:49.257Z,17.63
2022-10-07T22:41:17.668Z,17.57
2022-10-07T22:43:45.529Z,17.52
2022-10-07T22:46:26.132Z,17.49
2022-10-07T22:48:54.241Z,17.46
2022-10-07T22:51:21.327Z,17.43
2022-10-07T22:53:51.466Z,17.41
2022-10-07T22:56:18.440Z,17.39
2022-10-07T22:58:50.886Z,17.36
2022-10-07T23:01:17.766Z,17.36
2022-10-07T23:03:44.916Z,17.33
2022-10-07T23:06:12.971Z,17.30
2022-10-07T23:08:39.952Z,17.29
2022-10-07T23:11:07.267Z,17.26
2022-10-07T23:13:35.185Z,17.25
2022-10-07T23:16:04.044Z,17.21
2022-10-07T23:18:31.447Z,17.18
2022-10-07T23:21:08.704Z,17.15
2022-10-07T23:23:36.665Z,17.13
2022-10-07T23:26:05.404Z,17.09
2022-10-07T23:28:34.004Z,17.08
2022-10-07T23:31:08.508Z,17.05
2022-10-07T23:33:35.584Z,17.01
2022-10-07T23:36:05.512Z,17.00
2022-10-07T23:38:33.234Z,16.96
2022-10-07T23:41:00.635Z,16.94
2022-10-07T23:43:28.003Z,16.94
2022-10-07T23:45:54.732Z,16.91
2022-10-07T23:48:21.552Z,16.90
2022-10-07T23:50:49.312Z,16.85
2022-10-07T23:53:17.296Z,16.83
2022-10-07T23:55:48.000Z,16.80
2022-10-07T23:58:15.498Z,16.80
